sensor_id;sensor_type;location;lat;lon;timestamp;P1;durP1;ratioP1;P2;durP2;ratioP2
23722;SDS011;12042;52.136;5.584;2022-11-20T06:37:32;33.30;;;17.92;;
23722;SDS011;12042;52.136;5.584;2022-11-20T06:39:57;38.35;;;19.48;;
23722;SDS011;12042;52.136;5.584;2022-11-20T06:42:23;37.35;;;17.90;;
23722;SDS011;12042;52.136;5.584;2022-11-20T06:44:48;33.90;;;17.58;;
23722;SDS011;12042;52.136;5.584;2022-11-20T06:47:14;35.75;;;18.00;;
23722;SDS011;12042;52.136;5.584;2022-11-20T06:49:39;31.67;;;17.52;;
23722;SDS011;12042;52.136;5.584;2022-11-20T06:52:05;34.15;;;18.30;;
23722;SDS011;12042;52.136;5.584;2022-11-20T06:54:30;39.92;;;19.55;;
23722;SDS011;12042;52.136;5.584;2022-11-20T06:56:56;33.03;;;18.80;;
23722;SDS011;12042;52.136;5.584;2022-11-20T06:59:21;34.95;;;19.52;;
23722;SDS011;12042;52.136;5.584;2022-11-20T07:01:47;36.63;;;19.10;;
23722;SDS011;12042;52.136;5.584;2022-11-20T07:04:12;33.47;;;18.75;;
23722;SDS011;12042;52.136;5.584;2022-11-20T07:06:38;30.05;;;17.80;;
23722;SDS011;12042;52.136;5.584;2022-11-20T07:09:03;36.08;;;18.83;;
23722;SDS011;12042;52.136;5.584;2022-11-20T07:11:29;35.03;;;18.48;;
23722;SDS011;12042;52.136;5.584;2022-11-20T07:13:56;30.67;;;16.90;;
23722;SDS011;12042;52.136;5.584;2022-11-20T07:16:22;33.42;;;17.45;;
23722;SDS011;12042;52.136;5.584;2022-11-20T07:18:47;32.47;;;17.80;;
23722;SDS011;12042;52.136;5.584;2022-11-20T07:21:13;29.90;;;18.08;;
23722;SDS011;12042;52.136;5.584;2022-11-20T07:23:38;33.53;;;18.58;;
23722;SDS011;12042;52.136;5.584;2022-11-20T07:26:05;39.85;;;22.88;;
23722;SDS011;12042;52.136;5.584;2022-11-20T07:28:31;35.65;;;19.42;;
23722;SDS011;12042;52.136;5.584;2022-11-20T07:30:57;29.83;;;17.05;;
23722;SDS011;12042;52.136;5.584;2022-11-20T07:33:23;28.40;;;17.48;;
23722;SDS011;12042;52.136;5.584;2022-11-20T07:35:48;40.50;;;18.30;;
23722;SDS011;12042;52.136;5.584;2022-11-20T07:38:14;40.15;;;20.17;;
23722;SDS011;12042;52.136;5.584;2022-11-20T07:40:39;33.67;;;19.33;;
23722;SDS011;12042;52.136;5.584;2022-11-20T07:43:05;35.83;;;19.27;;
23722;SDS011;12042;52.136;5.584;2022-11-20T07:45:31;34.13;;;19.70;;
23722;SDS011;12042;52.136;5.584;2022-11-20T07:47:56;35.58;;;20.42;;
23722;SDS011;12042;52.136;5.584;2022-11-20T07:50:22;42.53;;;23.98;;
23722;SDS011;12042;52.136;5.584;2022-11-20T07:52:48;39.78;;;22.48;;
23722;SDS011;12042;52.136;5.584;2022-11-20T07:55:13;38.58;;;21.10;;
23722;SDS011;12042;52.136;5.584;2022-11-20T07:57:39;43.55;;;21.58;;
23722;SDS011;12042;52.136;5.584;2022-11-20T08:00:06;38.70;;;22.00;;
23722;SDS011;12042;52.136;5.584;2022-11-20T08:02:39;37.25;;;21.77;;
23722;SDS011;12042;52.136;5.584;2022-11-20T08:05:06;42.13;;;23.92;;
23722;SDS011;12042;52.136;5.584;2022-11-20T08:07:39;43.13;;;25.50;;
23722;SDS011;12042;52.136;5.584;2022-11-20T08:10:06;40.85;;;24.13;;
23722;SDS011;12042;52.136;5.584;2022-11-20T08:12:33;46.45;;;23.67;;
23722;SDS011;12042;52.136;5.584;2022-11-20T08:15:17;43.80;;;24.50;;
23722;SDS011;12042;52.136;5.584;2022-11-20T08:17:43;44.13;;;24.70;;
23722;SDS011;12042;52.136;5.584;2022-11-20T08:20:08;44.47;;;25.17;;
23722;SDS011;12042;52.136;5.584;2022-11-20T08:22:35;42.45;;;24.67;;
23722;SDS011;12042;52.136;5.584;2022-11-20T08:25:00;43.33;;;24.65;;
23722;SDS011;12042;52.136;5.584;2022-11-20T08:27:26;47.08;;;25.27;;
23722;SDS011;12042;52.136;5.584;2022-11-20T08:29:52;55.75;;;28.75;;
23722;SDS011;12042;52.136;5.584;2022-11-20T08:32:17;53.10;;;27.75;;
23722;SDS011;12042;52.136;5.584;2022-11-20T08:34:43;48.88;;;26.83;;
23722;SDS011;12042;52.136;5.584;2022-11-20T08:37:08;47.10;;;26.95;;
23722;SDS011;12042;52.136;5.584;2022-11-20T08:39:34;51.63;;;27.27;;
23722;SDS011;12042;52.136;5.584;2022-11-20T08:42:00;46.83;;;26.65;;
23722;SDS011;12042;52.136;5.584;2022-11-20T08:44:25;50.22;;;27.58;;
23722;SDS011;12042;52.136;5.584;2022-11-20T08:46:51;45.72;;;26.88;;
23722;SDS011;12042;52.136;5.584;2022-11-20T08:49:16;52.95;;;28.42;;
23722;SDS011;12042;52.136;5.584;2022-11-20T08:51:42;45.22;;;25.98;;
23722;SDS011;12042;52.136;5.584;2022-11-20T08:54:08;44.65;;;26.25;;
23722;SDS011;12042;52.136;5.584;2022-11-20T08:56:34;44.83;;;26.63;;
23722;SDS011;12042;52.136;5.584;2022-11-20T08:59:00;46.65;;;27.63;;
23722;SDS011;12042;52.136;5.584;2022-11-20T09:01:25;48.47;;;28.23;;
23722;SDS011;12042;52.136;5.584;2022-11-20T09:03:52;53.10;;;28.65;;
23722;SDS011;12042;52.136;5.584;2022-11-20T09:06:20;48.90;;;27.92;;
23722;SDS011;12042;52.136;5.584;2022-11-20T09:08:45;56.28;;;29.08;;
23722;SDS011;12042;52.136;5.584;2022-11-20T09:11:11;48.70;;;28.17;;
23722;SDS011;12042;52.136;5.584;2022-11-20T09:13:36;49.38;;;28.35;;
23722;SDS011;12042;52.136;5.584;2022-11-20T09:16:03;48.38;;;27.95;;
23722;SDS011;12042;52.136;5.584;2022-11-20T09:18:31;48.15;;;28.08;;
23722;SDS011;12042;52.136;5.584;2022-11-20T09:21:01;49.05;;;27.67;;
23722;SDS011;12042;52.136;5.584;2022-11-20T09:23:32;47.03;;;28.17;;
23722;SDS011;12042;52.136;5.584;2022-11-20T09:26:07;47.63;;;27.88;;
23722;SDS011;12042;52.136;5.584;2022-11-20T09:28:35;47.08;;;27.40;;
23722;SDS011;12042;52.136;5.584;2022-11-20T09:31:00;45.67;;;27.08;;
23722;SDS011;12042;52.136;5.584;2022-11-20T09:33:29;48.67;;;27.63;;
23722;SDS011;12042;52.136;5.584;2022-11-20T09:35:55;46.97;;;27.17;;
23722;SDS011;12042;52.136;5.584;2022-11-20T09:38:20;49.63;;;28.10;;
23722;SDS011;12042;52.136;5.584;2022-11-20T09:49:16;50.40;;;28.95;;
23722;SDS011;12042;52.136;5.584;2022-11-20T09:51:53;51.90;;;30.45;;
23722;SDS011;12042;52.136;5.584;2022-11-20T09:54:36;54.88;;;30.27;;
23722;SDS011;12042;52.136;5.584;2022-11-20T09:57:11;52.33;;;29.48;;
23722;SDS011;12042;52.136;5.584;2022-11-20T09:59:47;52.08;;;29.30;;
23722;SDS011;12042;52.136;5.584;2022-11-20T10:02:27;49.55;;;28.60;;
23722;SDS011;12042;52.136;5.584;2022-11-20T10:13:05;52.80;;;29.60;;
23722;SDS011;12042;52.136;5.584;2022-11-20T10:18:36;48.45;;;28.65;;
23722;SDS011;12042;52.136;5.584;2022-11-20T10:21:42;51.22;;;30.13;;
23722;SDS011;12042;52.136;5.584;2022-11-20T10:27:30;51.08;;;28.83;;
23722;SDS011;12042;52.136;5.584;2022-11-20T10:30:14;48.55;;;28.38;;
23722;SDS011;12042;52.136;5.584;2022-11-20T10:32:43;52.28;;;28.90;;
23722;SDS011;12042;52.136;5.584;2022-11-20T10:38:19;47.58;;;28.13;;
23722;SDS011;12042;52.136;5.584;2022-11-20T10:40:58;50.90;;;28.48;;
23722;SDS011;12042;52.136;5.584;2022-11-20T10:43:44;54.28;;;30.27;;
23722;SDS011;12042;52.136;5.584;2022-11-20T10:46:15;48.42;;;28.70;;
23722;SDS011;12042;52.136;5.584;2022-11-20T10:48:45;53.83;;;29.13;;
23722;SDS011;12042;52.136;5.584;2022-11-20T10:51:30;49.85;;;29.70;;
23722;SDS011;12042;52.136;5.584;2022-11-20T10:54:06;48.42;;;30.08;;
23722;SDS011;12042;52.136;5.584;2022-11-20T10:56:41;50.67;;;30.55;;
23722;SDS011;12042;52.136;5.584;2022-11-20T11:02:00;54.95;;;31.73;;
23722;SDS011;12042;52.136;5.584;2022-11-20T11:07:10;57.15;;;31.75;;
23722;SDS011;12042;52.136;5.584;2022-11-20T11:09:41;58.10;;;33.45;;
23722;SDS011;12042;52.136;5.584;2022-11-20T11:12:10;58.47;;;33.13;;
23722;SDS011;12042;52.136;5.584;2022-11-20T11:17:21;61.33;;;36.13;;
23722;SDS011;12042;52.136;5.584;2022-11-20T11:20:06;62.85;;;35.60;;
23722;SDS011;12042;52.136;5.584;2022-11-20T11:22:42;64.55;;;35.45;;
23722;SDS011;12042;52.136;5.584;2022-11-20T11:25:26;61.83;;;35.45;;
23722;SDS011;12042;52.136;5.584;2022-11-20T11:28:02;64.85;;;36.35;;
23722;SDS011;12042;52.136;5.584;2022-11-20T11:30:29;65.35;;;37.40;;
23722;SDS011;12042;52.136;5.584;2022-11-20T11:33:06;63.78;;;37.22;;
23722;SDS011;12042;52.136;5.584;2022-11-20T11:35:39;67.28;;;37.65;;
23722;SDS011;12042;52.136;5.584;2022-11-20T11:38:15;70.20;;;38.97;;
23722;SDS011;12042;52.136;5.584;2022-11-20T11:40:44;67.40;;;38.10;;
23722;SDS011;12042;52.136;5.584;2022-11-20T11:43:31;72.35;;;40.25;;
23722;SDS011;12042;52.136;5.584;2022-11-20T11:49:08;68.20;;;38.22;;
23722;SDS011;12042;52.136;5.584;2022-11-20T11:54:49;64.60;;;35.47;;
23722;SDS011;12042;52.136;5.584;2022-11-20T11:57:20;61.80;;;34.88;;
23722;SDS011;12042;52.136;5.584;2022-11-20T12:02:31;62.92;;;34.95;;
23722;SDS011;12042;52.136;5.584;2022-11-20T12:05:23;64.88;;;35.42;;
23722;SDS011;12042;52.136;5.584;2022-11-20T12:10:45;61.38;;;35.00;;
23722;SDS011;12042;52.136;5.584;2022-11-20T12:16:00;60.90;;;35.50;;
23722;SDS011;12042;52.136;5.584;2022-11-20T12:18:27;64.88;;;36.25;;
23722;SDS011;12042;52.136;5.584;2022-11-20T12:24:24;64.43;;;35.80;;
23722;SDS011;12042;52.136;5.584;2022-11-20T12:27:34;64.45;;;35.45;;
23722;SDS011;12042;52.136;5.584;2022-11-20T12:30:20;65.28;;;36.03;;
23722;SDS011;12042;52.136;5.584;2022-11-20T12:43:43;68.70;;;37.38;;
23722;SDS011;12042;52.136;5.584;2022-11-20T12:46:37;68.53;;;36.95;;
23722;SDS011;12042;52.136;5.584;2022-11-20T12:59:48;69.70;;;36.88;;
23722;SDS011;12042;52.136;5.584;2022-11-20T13:02:37;69.53;;;37.80;;
23722;SDS011;12042;52.136;5.584;2022-11-20T13:07:50;70.20;;;37.60;;
23722;SDS011;12042;52.136;5.584;2022-11-20T13:13:01;63.35;;;35.70;;
23722;SDS011;12042;52.136;5.584;2022-11-20T13:15:50;65.25;;;36.83;;
23722;SDS011;12042;52.136;5.584;2022-11-20T13:18:25;69.10;;;38.38;;
23722;SDS011;12042;52.136;5.584;2022-11-20T13:20:51;71.78;;;37.95;;
23722;SDS011;12042;52.136;5.584;2022-11-20T13:23:26;84.53;;;45.58;;
23722;SDS011;12042;52.136;5.584;2022-11-20T13:28:41;78.20;;;43.03;;
23722;SDS011;12042;52.136;5.584;2022-11-20T13:31:22;72.53;;;39.55;;
23722;SDS011;12042;52.136;5.584;2022-11-20T13:34:00;63.63;;;35.95;;
23722;SDS011;12042;52.136;5.584;2022-11-20T13:36:29;67.97;;;38.28;;
23722;SDS011;12042;52.136;5.584;2022-11-20T13:38:56;70.20;;;38.72;;
23722;SDS011;12042;52.136;5.584;2022-11-20T13:41:32;76.47;;;40.85;;
23722;SDS011;12042;52.136;5.584;2022-11-20T13:46:36;73.90;;;41.63;;
23722;SDS011;12042;52.136;5.584;2022-11-20T13:49:09;76.30;;;41.47;;
23722;SDS011;12042;52.136;5.584;2022-11-20T13:51:45;74.93;;;40.92;;
23722;SDS011;12042;52.136;5.584;2022-11-20T13:54:27;84.05;;;44.30;;
23722;SDS011;12042;52.136;5.584;2022-11-20T14:00:16;81.40;;;43.20;;
23722;SDS011;12042;52.136;5.584;2022-11-20T14:02:41;89.32;;;45.65;;
23722;SDS011;12042;52.136;5.584;2022-11-20T14:05:17;84.40;;;45.75;;
23722;SDS011;12042;52.136;5.584;2022-11-20T14:07:48;85.55;;;44.92;;
23722;SDS011;12042;52.136;5.584;2022-11-20T14:10:27;76.20;;;41.33;;
23722;SDS011;12042;52.136;5.584;2022-11-20T14:12:54;74.93;;;42.33;;
23722;SDS011;12042;52.136;5.584;2022-11-20T14:15:30;84.20;;;43.70;;
23722;SDS011;12042;52.136;5.584;2022-11-20T14:17:58;84.90;;;44.80;;
23722;SDS011;12042;52.136;5.584;2022-11-20T14:20:28;83.15;;;44.28;;
23722;SDS011;12042;52.136;5.584;2022-11-20T14:22:56;85.40;;;45.10;;
23722;SDS011;12042;52.136;5.584;2022-11-20T14:25:22;85.40;;;45.05;;
23722;SDS011;12042;52.136;5.584;2022-11-20T14:27:52;86.07;;;46.05;;
23722;SDS011;12042;52.136;5.584;2022-11-20T14:30:21;92.00;;;47.45;;
23722;SDS011;12042;52.136;5.584;2022-11-20T14:32:48;87.47;;;47.33;;
23722;SDS011;12042;52.136;5.584;2022-11-20T14:35:38;100.40;;;50.60;;
23722;SDS011;12042;52.136;5.584;2022-11-20T14:38:08;98.60;;;45.35;;
23722;SDS011;12042;52.136;5.584;2022-11-20T14:40:36;75.60;;;41.08;;
23722;SDS011;12042;52.136;5.584;2022-11-20T14:43:15;82.72;;;43.33;;
23722;SDS011;12042;52.136;5.584;2022-11-20T14:45:49;76.22;;;41.28;;
23722;SDS011;12042;52.136;5.584;2022-11-20T14:48:22;84.53;;;43.40;;
23722;SDS011;12042;52.136;5.584;2022-11-20T14:51:00;77.70;;;42.53;;
23722;SDS011;12042;52.136;5.584;2022-11-20T14:53:26;83.22;;;44.38;;
23722;SDS011;12042;52.136;5.584;2022-11-20T14:55:55;82.13;;;44.08;;
23722;SDS011;12042;52.136;5.584;2022-11-20T14:58:27;83.90;;;44.92;;
23722;SDS011;12042;52.136;5.584;2022-11-20T15:00:55;82.75;;;42.25;;
23722;SDS011;12042;52.136;5.584;2022-11-20T15:03:35;89.68;;;44.20;;
23722;SDS011;12042;52.136;5.584;2022-11-20T15:06:02;83.50;;;44.35;;
23722;SDS011;12042;52.136;5.584;2022-11-20T15:08:29;87.88;;;44.38;;
23722;SDS011;12042;52.136;5.584;2022-11-20T15:10:54;88.85;;;45.33;;
23722;SDS011;12042;52.136;5.584;2022-11-20T15:13:25;87.72;;;44.45;;
23722;SDS011;12042;52.136;5.584;2022-11-20T15:15:52;81.07;;;44.35;;
23722;SDS011;12042;52.136;5.584;2022-11-20T15:18:24;90.07;;;46.63;;
23722;SDS011;12042;52.136;5.584;2022-11-20T15:20:54;89.07;;;45.30;;
23722;SDS011;12042;52.136;5.584;2022-11-20T15:23:21;89.25;;;46.33;;
23722;SDS011;12042;52.136;5.584;2022-11-20T15:25:48;89.35;;;46.75;;
23722;SDS011;12042;52.136;5.584;2022-11-20T15:28:16;101.32;;;48.30;;
23722;SDS011;12042;52.136;5.584;2022-11-20T15:30:46;95.85;;;47.58;;
23722;SDS011;12042;52.136;5.584;2022-11-20T15:33:13;90.93;;;46.38;;
23722;SDS011;12042;52.136;5.584;2022-11-20T15:35:39;98.28;;;48.28;;
23722;SDS011;12042;52.136;5.584;2022-11-20T15:38:05;95.43;;;48.15;;
23722;SDS011;12042;52.136;5.584;2022-11-20T15:40:31;99.95;;;50.42;;
23722;SDS011;12042;52.136;5.584;2022-11-20T15:42:57;99.30;;;49.83;;
23722;SDS011;12042;52.136;5.584;2022-11-20T15:45:42;95.57;;;50.00;;
23722;SDS011;12042;52.136;5.584;2022-11-20T15:48:42;96.88;;;48.28;;
23722;SDS011;12042;52.136;5.584;2022-11-20T15:53:35;98.78;;;49.15;;
23722;SDS011;12042;52.136;5.584;2022-11-20T15:56:01;95.90;;;48.25;;
23722;SDS011;12042;52.136;5.584;2022-11-20T15:58:27;94.90;;;47.95;;
23722;SDS011;12042;52.136;5.584;2022-11-20T16:00:53;93.30;;;47.97;;
23722;SDS011;12042;52.136;5.584;2022-11-20T16:03:19;94.25;;;47.00;;
23722;SDS011;12042;52.136;5.584;2022-11-20T16:05:44;100.85;;;49.03;;
23722;SDS011;12042;52.136;5.584;2022-11-20T16:08:10;97.72;;;48.80;;
23722;SDS011;12042;52.136;5.584;2022-11-20T16:10:36;97.47;;;49.85;;
23722;SDS011;12042;52.136;5.584;2022-11-20T16:13:02;97.22;;;47.47;;
23722;SDS011;12042;52.136;5.584;2022-11-20T16:15:50;95.63;;;49.08;;
23722;SDS011;12042;52.136;5.584;2022-11-20T16:18:18;93.93;;;49.17;;
23722;SDS011;12042;52.136;5.584;2022-11-20T16:20:45;95.55;;;46.92;;
23722;SDS011;12042;52.136;5.584;2022-11-20T16:23:13;104.05;;;50.13;;
23722;SDS011;12042;52.136;5.584;2022-11-20T16:25:40;91.50;;;47.45;;
23722;SDS011;12042;52.136;5.584;2022-11-20T16:28:06;96.00;;;48.20;;
23722;SDS011;12042;52.136;5.584;2022-11-20T16:30:32;95.25;;;47.85;;
23722;SDS011;12042;52.136;5.584;2022-11-20T16:32:58;99.72;;;49.90;;
23722;SDS011;12042;52.136;5.584;2022-11-20T16:35:25;95.82;;;48.22;;
23722;SDS011;12042;52.136;5.584;2022-11-20T16:37:52;100.57;;;50.45;;
23722;SDS011;12042;52.136;5.584;2022-11-20T16:40:17;98.68;;;50.97;;
23722;SDS011;12042;52.136;5.584;2022-11-20T16:42:43;101.57;;;52.42;;
23722;SDS011;12042;52.136;5.584;2022-11-20T16:45:09;104.82;;;51.15;;
23722;SDS011;12042;52.136;5.584;2022-11-20T16:47:35;112.95;;;54.10;;
23722;SDS011;12042;52.136;5.584;2022-11-20T16:50:01;111.63;;;53.22;;
23722;SDS011;12042;52.136;5.584;2022-11-20T16:52:28;104.35;;;52.05;;
23722;SDS011;12042;52.136;5.584;2022-11-20T16:54:54;105.57;;;53.05;;
23722;SDS011;12042;52.136;5.584;2022-11-20T16:57:19;102.80;;;49.15;;
23722;SDS011;12042;52.136;5.584;2022-11-20T16:59:45;108.13;;;52.47;;
23722;SDS011;12042;52.136;5.584;2022-11-20T17:02:11;103.20;;;50.42;;
23722;SDS011;12042;52.136;5.584;2022-11-20T17:04:36;105.32;;;52.95;;
23722;SDS011;12042;52.136;5.584;2022-11-20T17:07:02;106.20;;;52.25;;
23722;SDS011;12042;52.136;5.584;2022-11-20T17:09:28;106.60;;;51.05;;
23722;SDS011;12042;52.136;5.584;2022-11-20T17:11:53;110.15;;;52.50;;
23722;SDS011;12042;52.136;5.584;2022-11-20T17:14:19;104.70;;;52.33;;
23722;SDS011;12042;52.136;5.584;2022-11-20T17:16:44;117.78;;;56.17;;
23722;SDS011;12042;52.136;5.584;2022-11-20T17:19:11;107.97;;;53.10;;
23722;SDS011;12042;52.136;5.584;2022-11-20T17:21:38;109.22;;;53.42;;
23722;SDS011;12042;52.136;5.584;2022-11-20T17:24:04;109.43;;;53.10;;
23722;SDS011;12042;52.136;5.584;2022-11-20T17:26:33;109.55;;;50.88;;
23722;SDS011;12042;52.136;5.584;2022-11-20T17:29:20;106.72;;;52.05;;
23722;SDS011;12042;52.136;5.584;2022-11-20T17:31:48;108.68;;;54.33;;
23722;SDS011;12042;52.136;5.584;2022-11-20T17:34:14;103.22;;;51.40;;
23722;SDS011;12042;52.136;5.584;2022-11-20T17:36:40;108.43;;;52.58;;
23722;SDS011;12042;52.136;5.584;2022-11-20T17:39:09;98.88;;;51.05;;
23722;SDS011;12042;52.136;5.584;2022-11-20T17:41:35;103.20;;;51.38;;
23722;SDS011;12042;52.136;5.584;2022-11-20T17:44:01;100.25;;;51.70;;
23722;SDS011;12042;52.136;5.584;2022-11-20T17:46:30;99.03;;;49.08;;
23722;SDS011;12042;52.136;5.584;2022-11-20T17:48:57;89.75;;;43.60;;
23722;SDS011;12042;52.136;5.584;2022-11-20T17:51:27;86.53;;;46.58;;
23722;SDS011;12042;52.136;5.584;2022-11-20T17:53:56;96.32;;;48.33;;
23722;SDS011;12042;52.136;5.584;2022-11-20T17:56:23;97.13;;;47.80;;
23722;SDS011;12042;52.136;5.584;2022-11-20T17:59:08;86.63;;;45.97;;
23722;SDS011;12042;52.136;5.584;2022-11-20T18:01:36;89.22;;;47.08;;
23722;SDS011;12042;52.136;5.584;2022-11-20T18:04:03;88.05;;;45.35;;
23722;SDS011;12042;52.136;5.584;2022-11-20T18:06:29;80.30;;;44.95;;
23722;SDS011;12042;52.136;5.584;2022-11-20T18:08:59;81.22;;;45.83;;
23722;SDS011;12042;52.136;5.584;2022-11-20T18:11:27;82.35;;;43.70;;
23722;SDS011;12042;52.136;5.584;2022-11-20T18:13:55;84.18;;;45.92;;
23722;SDS011;12042;52.136;5.584;2022-11-20T18:16:41;88.80;;;45.80;;
23722;SDS011;12042;52.136;5.584;2022-11-20T18:19:08;84.32;;;44.53;;
23722;SDS011;12042;52.136;5.584;2022-11-20T18:21:35;79.70;;;43.95;;
23722;SDS011;12042;52.136;5.584;2022-11-20T18:24:01;85.93;;;45.35;;
23722;SDS011;12042;52.136;5.584;2022-11-20T18:26:27;83.03;;;45.92;;
23722;SDS011;12042;52.136;5.584;2022-11-20T18:28:52;81.57;;;45.58;;
23722;SDS011;12042;52.136;5.584;2022-11-20T18:31:18;80.65;;;44.42;;
23722;SDS011;12042;52.136;5.584;2022-11-20T18:33:44;80.20;;;45.72;;
23722;SDS011;12042;52.136;5.584;2022-11-20T18:36:13;81.38;;;44.78;;
23722;SDS011;12042;52.136;5.584;2022-11-20T18:38:41;75.25;;;42.42;;
23722;SDS011;12042;52.136;5.584;2022-11-20T18:41:08;77.25;;;43.10;;
23722;SDS011;12042;52.136;5.584;2022-11-20T18:43:55;79.65;;;43.38;;
23722;SDS011;12042;52.136;5.584;2022-11-20T18:46:39;79.30;;;42.63;;
23722;SDS011;12042;52.136;5.584;2022-11-20T18:49:06;79.00;;;43.22;;
23722;SDS011;12042;52.136;5.584;2022-11-20T18:51:32;77.90;;;41.65;;
23722;SDS011;12042;52.136;5.584;2022-11-20T18:53:58;75.28;;;41.20;;
23722;SDS011;12042;52.136;5.584;2022-11-20T18:56:23;77.00;;;41.08;;
23722;SDS011;12042;52.136;5.584;2022-11-20T18:58:49;78.05;;;42.13;;
23722;SDS011;12042;52.136;5.584;2022-11-20T19:01:15;78.05;;;41.63;;
23722;SDS011;12042;52.136;5.584;2022-11-20T19:03:40;77.38;;;42.58;;
23722;SDS011;12042;52.136;5.584;2022-11-20T19:06:11;75.25;;;42.63;;
23722;SDS011;12042;52.136;5.584;2022-11-20T19:08:37;75.40;;;42.20;;
23722;SDS011;12042;52.136;5.584;2022-11-20T19:11:06;75.13;;;40.95;;
23722;SDS011;12042;52.136;5.584;2022-11-20T19:13:33;72.78;;;40.13;;
23722;SDS011;12042;52.136;5.584;2022-11-20T19:16:06;71.20;;;39.58;;
23722;SDS011;12042;52.136;5.584;2022-11-20T19:18:40;67.05;;;39.45;;
23722;SDS011;12042;52.136;5.584;2022-11-20T19:21:10;77.72;;;41.97;;
23722;SDS011;12042;52.136;5.584;2022-11-20T19:23:37;68.30;;;39.20;;
23722;SDS011;12042;52.136;5.584;2022-11-20T19:26:04;65.32;;;39.38;;
23722;SDS011;12042;52.136;5.584;2022-11-20T19:28:30;64.40;;;36.70;;
23722;SDS011;12042;52.136;5.584;2022-11-20T19:31:07;64.68;;;37.97;;
23722;SDS011;12042;52.136;5.584;2022-11-20T19:33:34;65.10;;;37.28;;
23722;SDS011;12042;52.136;5.584;2022-11-20T19:36:10;65.53;;;38.17;;
23722;SDS011;12042;52.136;5.584;2022-11-20T19:38:44;63.20;;;36.08;;
23722;SDS011;12042;52.136;5.584;2022-11-20T19:41:12;63.67;;;36.05;;
23722;SDS011;12042;52.136;5.584;2022-11-20T19:43:39;72.28;;;37.85;;
23722;SDS011;12042;52.136;5.584;2022-11-20T19:46:05;67.97;;;39.10;;
23722;SDS011;12042;52.136;5.584;2022-11-20T19:48:31;70.80;;;38.15;;
23722;SDS011;12042;52.136;5.584;2022-11-20T19:50:58;74.95;;;41.83;;
23722;SDS011;12042;52.136;5.584;2022-11-20T19:53:32;75.22;;;41.05;;
23722;SDS011;12042;52.136;5.584;2022-11-20T19:55:58;75.80;;;42.47;;
23722;SDS011;12042;52.136;5.584;2022-11-20T19:58:24;75.72;;;40.45;;
23722;SDS011;12042;52.136;5.584;2022-11-20T20:00:52;76.30;;;40.60;;
23722;SDS011;12042;52.136;5.584;2022-11-20T20:03:18;74.25;;;40.65;;
23722;SDS011;12042;52.136;5.584;2022-11-20T20:05:43;77.57;;;43.35;;
23722;SDS011;12042;52.136;5.584;2022-11-20T20:08:09;78.10;;;41.40;;
23722;SDS011;12042;52.136;5.584;2022-11-20T20:10:35;76.38;;;40.95;;
23722;SDS011;12042;52.136;5.584;2022-11-20T20:13:01;73.78;;;40.45;;
23722;SDS011;12042;52.136;5.584;2022-11-20T20:15:27;74.20;;;41.45;;
23722;SDS011;12042;52.136;5.584;2022-11-20T20:17:53;74.57;;;39.10;;
23722;SDS011;12042;52.136;5.584;2022-11-20T20:20:19;78.20;;;40.90;;
23722;SDS011;12042;52.136;5.584;2022-11-20T20:22:45;80.90;;;41.63;;
23722;SDS011;12042;52.136;5.584;2022-11-20T20:25:10;75.35;;;41.85;;
23722;SDS011;12042;52.136;5.584;2022-11-20T20:27:37;82.90;;;43.22;;
23722;SDS011;12042;52.136;5.584;2022-11-20T20:30:03;79.57;;;42.10;;
23722;SDS011;12042;52.136;5.584;2022-11-20T20:32:30;82.57;;;41.83;;
23722;SDS011;12042;52.136;5.584;2022-11-20T20:34:56;82.70;;;43.00;;
23722;SDS011;12042;52.136;5.584;2022-11-20T20:37:22;80.68;;;43.13;;
23722;SDS011;12042;52.136;5.584;2022-11-20T20:39:48;78.07;;;42.33;;
23722;SDS011;12042;52.136;5.584;2022-11-20T20:42:13;87.60;;;45.80;;
23722;SDS011;12042;52.136;5.584;2022-11-20T20:44:39;87.57;;;43.63;;
23722;SDS011;12042;52.136;5.584;2022-11-20T20:47:23;90.65;;;45.13;;
23722;SDS011;12042;52.136;5.584;2022-11-20T20:49:58;85.82;;;44.17;;
23722;SDS011;12042;52.136;5.584;2022-11-20T20:52:23;89.50;;;46.90;;
23722;SDS011;12042;52.136;5.584;2022-11-20T20:54:53;80.82;;;42.65;;
23722;SDS011;12042;52.136;5.584;2022-11-20T20:57:19;76.30;;;41.90;;
23722;SDS011;12042;52.136;5.584;2022-11-20T20:59:46;73.93;;;38.97;;
23722;SDS011;12042;52.136;5.584;2022-11-20T21:02:13;69.93;;;39.75;;
23722;SDS011;12042;52.136;5.584;2022-11-20T21:04:39;72.65;;;39.45;;
23722;SDS011;12042;52.136;5.584;2022-11-20T21:07:04;75.20;;;41.33;;
23722;SDS011;12042;52.136;5.584;2022-11-20T21:09:30;71.35;;;38.85;;
23722;SDS011;12042;52.136;5.584;2022-11-20T21:11:56;75.70;;;40.85;;
23722;SDS011;12042;52.136;5.584;2022-11-20T21:14:21;71.07;;;40.17;;
23722;SDS011;12042;52.136;5.584;2022-11-20T21:16:47;78.05;;;42.03;;
23722;SDS011;12042;52.136;5.584;2022-11-20T21:19:12;77.78;;;40.38;;
23722;SDS011;12042;52.136;5.584;2022-11-20T21:21:38;75.53;;;39.65;;
23722;SDS011;12042;52.136;5.584;2022-11-20T21:24:22;78.55;;;42.05;;
23722;SDS011;12042;52.136;5.584;2022-11-20T21:26:47;75.38;;;40.60;;
23722;SDS011;12042;52.136;5.584;2022-11-20T21:29:16;80.32;;;42.92;;
23722;SDS011;12042;52.136;5.584;2022-11-20T21:31:44;83.40;;;44.50;;
23722;SDS011;12042;52.136;5.584;2022-11-20T21:34:11;80.97;;;42.17;;
23722;SDS011;12042;52.136;5.584;2022-11-20T21:36:37;74.60;;;41.55;;
23722;SDS011;12042;52.136;5.584;2022-11-20T21:39:03;74.20;;;40.63;;
23722;SDS011;12042;52.136;5.584;2022-11-20T21:41:29;74.25;;;40.85;;
23722;SDS011;12042;52.136;5.584;2022-11-20T21:43:55;80.32;;;41.95;;
23722;SDS011;12042;52.136;5.584;2022-11-20T21:46:22;77.80;;;42.30;;
23722;SDS011;12042;52.136;5.584;2022-11-20T21:48:48;77.45;;;41.17;;
23722;SDS011;12042;52.136;5.584;2022-11-20T21:51:14;76.45;;;41.42;;
23722;SDS011;12042;52.136;5.584;2022-11-20T21:53:42;78.10;;;42.65;;
23722;SDS011;12042;52.136;5.584;2022-11-20T21:56:10;77.38;;;42.17;;
23722;SDS011;12042;52.136;5.584;2022-11-20T21:58:37;75.82;;;41.15;;
23722;SDS011;12042;52.136;5.584;2022-11-20T22:01:13;79.22;;;40.80;;
23722;SDS011;12042;52.136;5.584;2022-11-20T22:03:46;84.93;;;44.15;;
23722;SDS011;12042;52.136;5.584;2022-11-20T22:06:16;82.30;;;42.15;;
23722;SDS011;12042;52.136;5.584;2022-11-20T22:08:43;81.15;;;42.40;;
23722;SDS011;12042;52.136;5.584;2022-11-20T22:11:11;88.40;;;44.78;;
23722;SDS011;12042;52.136;5.584;2022-11-20T22:13:38;84.97;;;44.78;;
23722;SDS011;12042;52.136;5.584;2022-11-20T22:16:22;84.80;;;44.75;;
23722;SDS011;12042;52.136;5.584;2022-11-20T22:18:52;80.07;;;42.95;;
23722;SDS011;12042;52.136;5.584;2022-11-20T22:21:19;78.68;;;41.20;;
23722;SDS011;12042;52.136;5.584;2022-11-20T22:23:47;78.80;;;42.63;;
23722;SDS011;12042;52.136;5.584;2022-11-20T22:26:19;75.63;;;40.97;;
23722;SDS011;12042;52.136;5.584;2022-11-20T22:28:46;77.97;;;41.63;;
23722;SDS011;12042;52.136;5.584;2022-11-20T22:31:13;78.60;;;40.88;;
23722;SDS011;12042;52.136;5.584;2022-11-20T22:33:39;72.63;;;40.08;;
23722;SDS011;12042;52.136;5.584;2022-11-20T22:36:09;69.28;;;39.08;;
23722;SDS011;12042;52.136;5.584;2022-11-20T22:38:36;65.03;;;37.42;;
23722;SDS011;12042;52.136;5.584;2022-11-20T22:41:18;63.38;;;35.92;;